sensor_id;sensor_type;location;lat;lon;timestamp;temperature;humidity
44435;DHT22;30138;20.964;105.830;2023-05-16T00:04:57;28.90;99.90
44435;DHT22;30138;20.964;105.830;2023-05-16T00:10:03;28.90;99.90
44435;DHT22;30138;20.964;105.830;2023-05-16T00:15:12;28.90;99.90
44435;DHT22;30138;20.964;105.830;2023-05-16T00:20:19;28.90;99.90
44435;DHT22;30138;20.964;105.830;2023-05-16T00:25:26;28.90;99.90
44435;DHT22;30138;20.964;105.830;2023-05-16T00:30:35;28.90;99.90
44435;DHT22;30138;20.964;105.830;2023-05-16T00:35:42;29.00;99.90
44435;DHT22;30138;20.964;105.830;2023-05-16T00:40:48;29.00;99.90
44435;DHT22;30138;20.964;105.830;2023-05-16T00:45:57;29.00;99.90
44435;DHT22;30138;20.964;105.830;2023-05-16T00:51:04;29.00;99.90
44435;DHT22;30138;20.964;105.830;2023-05-16T00:56:12;29.00;99.90
44435;DHT22;30138;20.964;105.830;2023-05-16T01:01:23;29.00;99.90
44435;DHT22;30138;20.964;105.830;2023-05-16T01:06:30;29.00;99.90
44435;DHT22;30138;20.964;105.830;2023-05-16T01:11:46;29.10;99.90
44435;DHT22;30138;20.964;105.830;2023-05-16T01:17:06;29.00;99.90
44435;DHT22;30138;20.964;105.830;2023-05-16T01:22:25;29.00;99.90
44435;DHT22;30138;20.964;105.830;2023-05-16T01:27:38;29.10;99.90
44435;DHT22;30138;20.964;105.830;2023-05-16T01:32:46;29.10;99.90
44435;DHT22;30138;20.964;105.830;2023-05-16T01:38:02;29.10;99.90
44435;DHT22;30138;20.964;105.830;2023-05-16T01:44:00;29.10;99.90
44435;DHT22;30138;20.964;105.830;2023-05-16T01:49:40;29.20;99.90
44435;DHT22;30138;20.964;105.830;2023-05-16T01:54:59;29.20;99.90
44435;DHT22;30138;20.964;105.830;2023-05-16T02:00:27;29.20;99.90
44435;DHT22;30138;20.964;105.830;2023-05-16T02:05:35;29.20;99.90
44435;DHT22;30138;20.964;105.830;2023-05-16T02:10:45;29.20;99.90
44435;DHT22;30138;20.964;105.830;2023-05-16T02:15:55;29.20;99.90
44435;DHT22;30138;20.964;105.830;2023-05-16T02:21:02;29.20;99.90
44435;DHT22;30138;20.964;105.830;2023-05-16T02:26:09;29.30;99.90
44435;DHT22;30138;20.964;105.830;2023-05-16T02:31:27;29.30;99.90
44435;DHT22;30138;20.964;105.830;2023-05-16T02:36:34;29.30;99.90
44435;DHT22;30138;20.964;105.830;2023-05-16T02:41:41;29.30;99.90
44435;DHT22;30138;20.964;105.830;2023-05-16T02:46:52;29.30;99.90
44435;DHT22;30138;20.964;105.830;2023-05-16T02:51:58;29.40;99.90
44435;DHT22;30138;20.964;105.830;2023-05-16T02:57:05;29.40;99.90
44435;DHT22;30138;20.964;105.830;2023-05-16T03:02:16;29.40;99.90
44435;DHT22;30138;20.964;105.830;2023-05-16T03:07:23;29.40;99.90
44435;DHT22;30138;20.964;105.830;2023-05-16T03:12:30;29.50;99.90
44435;DHT22;30138;20.964;105.830;2023-05-16T03:17:42;29.40;99.90
44435;DHT22;30138;20.964;105.830;2023-05-16T03:23:03;29.40;99.90
44435;DHT22;30138;20.964;105.830;2023-05-16T03:28:12;29.50;99.90
44435;DHT22;30138;20.964;105.830;2023-05-16T03:33:23;29.50;99.90
44435;DHT22;30138;20.964;105.830;2023-05-16T03:38:30;29.50;99.90
44435;DHT22;30138;20.964;105.830;2023-05-16T03:43:37;29.50;99.90
44435;DHT22;30138;20.964;105.830;2023-05-16T03:48:45;29.50;99.90
44435;DHT22;30138;20.964;105.830;2023-05-16T03:53:52;29.50;99.90
44435;DHT22;30138;20.964;105.830;2023-05-16T03:58:59;29.60;99.90
44435;DHT22;30138;20.964;105.830;2023-05-16T04:04:08;29.60;99.90
44435;DHT22;30138;20.964;105.830;2023-05-16T04:09:14;29.60;99.90
44435;DHT22;30138;20.964;105.830;2023-05-16T04:14:20;29.60;99.90
44435;DHT22;30138;20.964;105.830;2023-05-16T04:19:29;29.60;99.90
44435;DHT22;30138;20.964;105.830;2023-05-16T04:24:35;29.70;99.90
44435;DHT22;30138;20.964;105.830;2023-05-16T04:36:24;29.70;99.90
44435;DHT22;30138;20.964;105.830;2023-05-16T04:42:01;29.70;99.90
44435;DHT22;30138;20.964;105.830;2023-05-16T04:47:09;29.80;99.90
44435;DHT22;30138;20.964;105.830;2023-05-16T04:52:18;29.80;99.90
44435;DHT22;30138;20.964;105.830;2023-05-16T04:57:25;29.80;99.90
44435;DHT22;30138;20.964;105.830;2023-05-16T05:02:32;29.80;99.90
44435;DHT22;30138;20.964;105.830;2023-05-16T05:07:41;29.90;99.90
44435;DHT22;30138;20.964;105.830;2023-05-16T05:12:47;29.90;99.90
44435;DHT22;30138;20.964;105.830;2023-05-16T05:17:54;29.90;99.90
44435;DHT22;30138;20.964;105.830;2023-05-16T05:23:03;30.00;99.90
44435;DHT22;30138;20.964;105.830;2023-05-16T05:28:10;30.00;99.90
44435;DHT22;30138;20.964;105.830;2023-05-16T05:33:17;30.10;99.90
44435;DHT22;30138;20.964;105.830;2023-05-16T05:38:26;30.10;99.90
44435;DHT22;30138;20.964;105.830;2023-05-16T05:43:33;30.20;99.90
44435;DHT22;30138;20.964;105.830;2023-05-16T05:48:40;30.20;99.90
44435;DHT22;30138;20.964;105.830;2023-05-16T05:53:48;30.30;99.90
44435;DHT22;30138;20.964;105.830;2023-05-16T05:58:56;30.30;99.90
44435;DHT22;30138;20.964;105.830;2023-05-16T06:04:03;30.30;99.90
44435;DHT22;30138;20.964;105.830;2023-05-16T06:09:12;30.30;99.90
44435;DHT22;30138;20.964;105.830;2023-05-16T06:14:18;30.40;99.90
44435;DHT22;30138;20.964;105.830;2023-05-16T06:19:25;30.40;99.90
44435;DHT22;30138;20.964;105.830;2023-05-16T06:24:33;30.50;99.90
44435;DHT22;30138;20.964;105.830;2023-05-16T06:29:40;30.50;99.90
44435;DHT22;30138;20.964;105.830;2023-05-16T06:34:52;30.50;99.90
44435;DHT22;30138;20.964;105.830;2023-05-16T06:40:01;30.60;99.90
44435;DHT22;30138;20.964;105.830;2023-05-16T06:45:09;30.60;99.90
44435;DHT22;30138;20.964;105.830;2023-05-16T06:50:17;30.70;99.90
44435;DHT22;30138;20.964;105.830;2023-05-16T06:55:26;30.70;99.90
44435;DHT22;30138;20.964;105.830;2023-05-16T07:00:33;30.80;99.90
44435;DHT22;30138;20.964;105.830;2023-05-16T07:05:40;30.80;99.90
44435;DHT22;30138;20.964;105.830;2023-05-16T07:10:49;30.80;99.90
44435;DHT22;30138;20.964;105.830;2023-05-16T07:15:56;30.80;99.90
44435;DHT22;30138;20.964;105.830;2023-05-16T07:21:02;30.90;99.90
44435;DHT22;30138;20.964;105.830;2023-05-16T07:26:11;30.90;99.90
44435;DHT22;30138;20.964;105.830;2023-05-16T07:31:17;30.90;99.90
44435;DHT22;30138;20.964;105.830;2023-05-16T07:36:24;31.00;99.90
44435;DHT22;30138;20.964;105.830;2023-05-16T07:41:33;31.00;99.90
44435;DHT22;30138;20.964;105.830;2023-05-16T07:46:42;31.10;99.90
44435;DHT22;30138;20.964;105.830;2023-05-16T07:51:49;31.10;99.90
44435;DHT22;30138;20.964;105.830;2023-05-16T07:56:58;31.10;99.90
44435;DHT22;30138;20.964;105.830;2023-05-16T08:02:05;31.10;99.90
44435;DHT22;30138;20.964;105.830;2023-05-16T08:07:15;31.20;99.90
44435;DHT22;30138;20.964;105.830;2023-05-16T08:12:23;31.20;99.90
44435;DHT22;30138;20.964;105.830;2023-05-16T08:17:30;31.20;99.90
44435;DHT22;30138;20.964;105.830;2023-05-16T08:22:37;31.30;99.90
44435;DHT22;30138;20.964;105.830;2023-05-16T08:27:47;31.20;99.90
44435;DHT22;30138;20.964;105.830;2023-05-16T08:32:54;31.30;99.90
44435;DHT22;30138;20.964;105.830;2023-05-16T08:38:01;31.30;99.90
44435;DHT22;30138;20.964;105.830;2023-05-16T08:43:10;31.40;99.90
44435;DHT22;30138;20.964;105.830;2023-05-16T08:48:20;31.40;99.90
44435;DHT22;30138;20.964;105.830;2023-05-16T08:53:31;31.40;99.90
44435;DHT22;30138;20.964;105.830;2023-05-16T08:58:46;31.40;99.90
44435;DHT22;30138;20.964;105.830;2023-05-16T09:03:57;31.50;99.90
44435;DHT22;30138;20.964;105.830;2023-05-16T09:09:04;31.50;99.90
44435;DHT22;30138;20.964;105.830;2023-05-16T09:14:33;31.50;99.90
44435;DHT22;30138;20.964;105.830;2023-05-16T09:19:40;31.50;99.90
44435;DHT22;30138;20.964;105.830;2023-05-16T09:24:47;31.50;99.90
44435;DHT22;30138;20.964;105.830;2023-05-16T09:29:57;31.60;99.90
44435;DHT22;30138;20.964;105.830;2023-05-16T09:35:05;31.60;99.90
44435;DHT22;30138;20.964;105.830;2023-05-16T09:40:21;31.60;99.90
44435;DHT22;30138;20.964;105.830;2023-05-16T09:45:30;31.60;99.90
44435;DHT22;30138;20.964;105.830;2023-05-16T09:50:40;31.60;99.90
44435;DHT22;30138;20.964;105.830;2023-05-16T09:56:03;31.70;99.90
44435;DHT22;30138;20.964;105.830;2023-05-16T10:01:15;31.70;99.90
44435;DHT22;30138;20.964;105.830;2023-05-16T10:06:21;31.70;99.90
44435;DHT22;30138;20.964;105.830;2023-05-16T10:11:29;31.70;99.90
44435;DHT22;30138;20.964;105.830;2023-05-16T10:16:38;31.70;99.90
44435;DHT22;30138;20.964;105.830;2023-05-16T10:21:52;31.80;99.90
44435;DHT22;30138;20.964;105.830;2023-05-16T10:27:03;31.70;99.90
44435;DHT22;30138;20.964;105.830;2023-05-16T10:32:12;31.80;99.90
44435;DHT22;30138;20.964;105.830;2023-05-16T10:37:20;31.80;99.90
44435;DHT22;30138;20.964;105.830;2023-05-16T10:42:27;31.70;99.90
44435;DHT22;30138;20.964;105.830;2023-05-16T10:47:39;31.70;99.90
44435;DHT22;30138;20.964;105.830;2023-05-16T10:52:50;31.70;99.90
44435;DHT22;30138;20.964;105.830;2023-05-16T10:58:06;31.80;99.90
44435;DHT22;30138;20.964;105.830;2023-05-16T11:03:22;31.80;99.90
44435;DHT22;30138;20.964;105.830;2023-05-16T11:08:30;31.80;99.90
44435;DHT22;30138;20.964;105.830;2023-05-16T11:13:53;31.80;99.90
44435;DHT22;30138;20.964;105.830;2023-05-16T11:19:07;31.80;99.90
44435;DHT22;30138;20.964;105.830;2023-05-16T11:24:29;31.80;99.90
44435;DHT22;30138;20.964;105.830;2023-05-16T11:29:37;31.80;99.90
44435;DHT22;30138;20.964;105.830;2023-05-16T11:34:46;31.80;99.90
44435;DHT22;30138;20.964;105.830;2023-05-16T11:39:58;31.70;99.90
44435;DHT22;30138;20.964;105.830;2023-05-16T11:45:06;31.80;99.90
44435;DHT22;30138;20.964;105.830;2023-05-16T11:50:16;31.70;99.90
44435;DHT22;30138;20.964;105.830;2023-05-16T11:55:25;31.80;99.90
44435;DHT22;30138;20.964;105.830;2023-05-16T12:00:32;31.70;99.90
44435;DHT22;30138;20.964;105.830;2023-05-16T12:05:49;31.70;99.90
44435;DHT22;30138;20.964;105.830;2023-05-16T12:10:56;31.80;99.90
44435;DHT22;30138;20.964;105.830;2023-05-16T12:16:03;31.80;99.90
44435;DHT22;30138;20.964;105.830;2023-05-16T12:21:13;31.80;99.90
44435;DHT22;30138;20.964;105.830;2023-05-16T12:26:25;31.80;99.90
44435;DHT22;30138;20.964;105.830;2023-05-16T12:31:37;31.70;99.90
44435;DHT22;30138;20.964;105.830;2023-05-16T12:36:50;31.80;99.90
44435;DHT22;30138;20.964;105.830;2023-05-16T12:42:04;31.80;99.90
44435;DHT22;30138;20.964;105.830;2023-05-16T12:47:12;31.70;99.90
44435;DHT22;30138;20.964;105.830;2023-05-16T12:52:21;31.70;99.90
44435;DHT22;30138;20.964;105.830;2023-05-16T12:57:28;31.70;99.90
44435;DHT22;30138;20.964;105.830;2023-05-16T13:02:34;31.80;99.90
44435;DHT22;30138;20.964;105.830;2023-05-16T13:07:42;31.80;99.90
44435;DHT22;30138;20.964;105.830;2023-05-16T13:12:50;31.70;99.90
44435;DHT22;30138;20.964;105.830;2023-05-16T13:18:00;31.70;99.90
44435;DHT22;30138;20.964;105.830;2023-05-16T13:23:08;31.70;99.90
44435;DHT22;30138;20.964;105.830;2023-05-16T13:28:20;31.70;99.90
44435;DHT22;30138;20.964;105.830;2023-05-16T13:33:28;31.70;99.90
44435;DHT22;30138;20.964;105.830;2023-05-16T13:38:43;31.70;99.90
44435;DHT22;30138;20.964;105.830;2023-05-16T13:43:51;31.70;99.90
44435;DHT22;30138;20.964;105.830;2023-05-16T13:48:58;31.70;99.90
44435;DHT22;30138;20.964;105.830;2023-05-16T13:54:07;31.70;99.90
44435;DHT22;30138;20.964;105.830;2023-05-16T13:59:14;31.70;99.90
44435;DHT22;30138;20.964;105.830;2023-05-16T14:04:22;31.60;99.90
44435;DHT22;30138;20.964;105.830;2023-05-16T14:09:33;31.60;99.90
44435;DHT22;30138;20.964;105.830;2023-05-16T14:14:41;31.60;99.90
44435;DHT22;30138;20.964;105.830;2023-05-16T14:19:50;31.60;99.90
44435;DHT22;30138;20.964;105.830;2023-05-16T14:25:00;31.60;99.90
44435;DHT22;30138;20.964;105.830;2023-05-16T14:30:10;31.60;99.90
44435;DHT22;30138;20.964;105.830;2023-05-16T14:35:17;31.60;99.90
44435;DHT22;30138;20.964;105.830;2023-05-16T14:40:26;31.60;99.90
44435;DHT22;30138;20.964;105.830;2023-05-16T14:45:33;31.60;99.90
44435;DHT22;30138;20.964;105.830;2023-05-16T14:50:41;31.60;99.90
44435;DHT22;30138;20.964;105.830;2023-05-16T14:55:51;31.60;99.90
44435;DHT22;30138;20.964;105.830;2023-05-16T15:00:58;31.60;99.90
44435;DHT22;30138;20.964;105.830;2023-05-16T15:06:07;31.60;99.90
44435;DHT22;30138;20.964;105.830;2023-05-16T15:11:16;31.50;99.90
44435;DHT22;30138;20.964;105.830;2023-05-16T15:16:24;31.60;99.90
44435;DHT22;30138;20.964;105.830;2023-05-16T15:21:31;31.50;99.90
44435;DHT22;30138;20.964;105.830;2023-05-16T15:26:41;31.60;99.90
44435;DHT22;30138;20.964;105.830;2023-05-16T15:31:48;31.60;99.90
44435;DHT22;30138;20.964;105.830;2023-05-16T15:36:55;31.60;99.90
44435;DHT22;30138;20.964;105.830;2023-05-16T15:42:04;31.50;99.90
44435;DHT22;30138;20.964;105.830;2023-05-16T15:47:11;31.50;99.90
44435;DHT22;30138;20.964;105.830;2023-05-16T15:52:19;31.50;99.90
44435;DHT22;30138;20.964;105.830;2023-05-16T15:57:30;31.50;99.90
44435;DHT22;30138;20.964;105.830;2023-05-16T16:02:37;31.50;99.90
44435;DHT22;30138;20.964;105.830;2023-05-16T16:07:50;31.50;99.90
44435;DHT22;30138;20.964;105.830;2023-05-16T16:13:03;31.50;99.90
44435;DHT22;30138;20.964;105.830;2023-05-16T16:18:10;31.50;99.90
44435;DHT22;30138;20.964;105.830;2023-05-16T16:23:18;31.40;99.90
44435;DHT22;30138;20.964;105.830;2023-05-16T16:28:28;31.50;99.90
44435;DHT22;30138;20.964;105.830;2023-05-16T16:33:35;31.40;99.90
44435;DHT22;30138;20.964;105.830;2023-05-16T16:38:43;31.40;99.90
44435;DHT22;30138;20.964;105.830;2023-05-16T16:43:53;31.40;99.90
44435;DHT22;30138;20.964;105.830;2023-05-16T16:49:00;31.40;99.90
44435;DHT22;30138;20.964;105.830;2023-05-16T16:54:08;31.40;99.90
44435;DHT22;30138;20.964;105.830;2023-05-16T16:59:17;31.40;99.90
44435;DHT22;30138;20.964;105.830;2023-05-16T17:04:24;31.30;99.90
44435;DHT22;30138;20.964;105.830;2023-05-16T17:09:34;31.30;99.90
44435;DHT22;30138;20.964;105.830;2023-05-16T17:14:46;31.30;99.90
44435;DHT22;30138;20.964;105.830;2023-05-16T17:19:53;31.30;99.90
44435;DHT22;30138;20.964;105.830;2023-05-16T17:25:11;31.30;99.90
44435;DHT22;30138;20.964;105.830;2023-05-16T17:30:26;31.30;99.90
44435;DHT22;30138;20.964;105.830;2023-05-16T17:35:33;31.30;99.90
44435;DHT22;30138;20.964;105.830;2023-05-16T17:40:43;31.30;99.90
44435;DHT22;30138;20.964;105.830;2023-05-16T17:45:54;31.30;99.90
44435;DHT22;30138;20.964;105.830;2023-05-16T17:51:01;31.30;99.90
44435;DHT22;30138;20.964;105.830;2023-05-16T17:56:09;31.30;99.90
44435;DHT22;30138;20.964;105.830;2023-05-16T18:01:17;31.30;99.90
44435;DHT22;30138;20.964;105.830;2023-05-16T18:06:27;31.30;99.90
44435;DHT22;30138;20.964;105.830;2023-05-16T18:11:34;31.20;99.90
44435;DHT22;30138;20.964;105.830;2023-05-16T18:16:45;31.20;99.90
44435;DHT22;30138;20.964;105.830;2023-05-16T18:21:51;31.20;99.90
44435;DHT22;30138;20.964;105.830;2023-05-16T18:27:01;31.20;99.90
44435;DHT22;30138;20.964;105.830;2023-05-16T18:32:10;31.20;99.90
44435;DHT22;30138;20.964;105.830;2023-05-16T18:37:18;31.20;99.90
44435;DHT22;30138;20.964;105.830;2023-05-16T18:42:25;31.20;99.90
44435;DHT22;30138;20.964;105.830;2023-05-16T18:47:36;31.20;99.90
44435;DHT22;30138;20.964;105.830;2023-05-16T18:52:42;31.20;99.90
44435;DHT22;30138;20.964;105.830;2023-05-16T18:57:48;31.20;99.90
44435;DHT22;30138;20.964;105.830;2023-05-16T19:02:57;31.20;99.90
44435;DHT22;30138;20.964;105.830;2023-05-16T19:08:04;31.20;99.90
44435;DHT22;30138;20.964;105.830;2023-05-16T19:13:11;31.20;99.90
44435;DHT22;30138;20.964;105.830;2023-05-16T19:18:19;31.20;99.90
44435;DHT22;30138;20.964;105.830;2023-05-16T19:23:26;31.10;99.90
44435;DHT22;30138;20.964;105.830;2023-05-16T19:28:32;31.10;99.90
44435;DHT22;30138;20.964;105.830;2023-05-16T19:33:41;31.10;99.90
44435;DHT22;30138;20.964;105.830;2023-05-16T19:38:48;31.10;99.90
44435;DHT22;30138;20.964;105.830;2023-05-16T19:43:54;31.10;99.90
44435;DHT22;30138;20.964;105.830;2023-05-16T19:49:02;31.10;99.90
44435;DHT22;30138;20.964;105.830;2023-05-16T19:54:08;31.10;99.90
44435;DHT22;30138;20.964;105.830;2023-05-16T19:59:15;31.10;99.90
44435;DHT22;30138;20.964;105.830;2023-05-16T20:04:24;31.10;99.90
44435;DHT22;30138;20.964;105.830;2023-05-16T20:09:30;31.10;99.90
44435;DHT22;30138;20.964;105.830;2023-05-16T20:14:36;31.10;99.90
44435;DHT22;30138;20.964;105.830;2023-05-16T20:19:45;31.10;99.90
44435;DHT22;30138;20.964;105.830;2023-05-16T20:24:51;31.10;99.90
44435;DHT22;30138;20.964;105.830;2023-05-16T20:29:58;31.00;99.90
44435;DHT22;30138;20.964;105.830;2023-05-16T20:35:08;31.00;99.90
44435;DHT22;30138;20.964;105.830;2023-05-16T20:40:16;31.10;99.90
44435;DHT22;30138;20.964;105.830;2023-05-16T20:45:23;31.00;99.90
44435;DHT22;30138;20.964;105.830;2023-05-16T20:50:34;31.00;99.90
44435;DHT22;30138;20.964;105.830;2023-05-16T20:55:42;31.00;99.90
44435;DHT22;30138;20.964;105.830;2023-05-16T21:00:49;31.00;99.90
44435;DHT22;30138;20.964;105.830;2023-05-16T21:05:58;31.00;99.90
44435;DHT22;30138;20.964;105.830;2023-05-16T21:11:05;30.90;99.90
44435;DHT22;30138;20.964;105.830;2023-05-16T21:16:11;30.90;99.90
44435;DHT22;30138;20.964;105.830;2023-05-16T21:21:21;30.90;99.90
44435;DHT22;30138;20.964;105.830;2023-05-16T21:26:28;30.90;99.90
44435;DHT22;30138;20.964;105.830;2023-05-16T21:31:34;30.90;99.90
44435;DHT22;30138;20.964;105.830;2023-05-16T21:36:45;30.90;99.90
44435;DHT22;30138;20.964;105.830;2023-05-16T21:41:52;30.90;99.90
44435;DHT22;30138;20.964;105.830;2023-05-16T21:46:59;30.90;99.90
44435;DHT22;30138;20.964;105.830;2023-05-16T21:52:07;30.90;99.90
44435;DHT22;30138;20.964;105.830;2023-05-16T21:57:14;30.90;99.90
44435;DHT22;30138;20.964;105.830;2023-05-16T22:02:21;30.90;99.90
44435;DHT22;30138;20.964;105.830;2023-05-16T22:07:31;30.80;99.90
44435;DHT22;30138;20.964;105.830;2023-05-16T22:12:37;30.80;99.90
44435;DHT22;30138;20.964;105.830;2023-05-16T22:17:44;30.90;99.90
44435;DHT22;30138;20.964;105.830;2023-05-16T22:22:55;30.80;99.90
44435;DHT22;30138;20.964;105.830;2023-05-16T22:28:06;30.80;99.90
44435;DHT22;30138;20.964;105.830;2023-05-16T22:33:13;30.80;99.90
44435;DHT22;30138;20.964;105.830;2023-05-16T22:38:22;30.80;99.90
44435;DHT22;30138;20.964;105.830;2023-05-16T22:43:28;30.80;99.90
44435;DHT22;30138;20.964;105.830;2023-05-16T22:48:35;30.80;99.90
44435;DHT22;30138;20.964;105.830;2023-05-16T22:53:44;30.80;99.90
44435;DHT22;30138;20.964;105.830;2023-05-16T22:58:50;30.80;99.90
44435;DHT22;30138;20.964;105.830;2023-05-16T23:03:57;30.80;99.90
44435;DHT22;30138;20.964;105.830;2023-05-16T23:09:06;30.80;99.90
44435;DHT22;30138;20.964;105.830;2023-05-16T23:14:14;30.80;99.90
44435;DHT22;30138;20.964;105.830;2023-05-16T23:19:20;30.80;99.90
44435;DHT22;30138;20.964;105.830;2023-05-16T23:24:28;30.80;99.90
44435;DHT22;30138;20.964;105.830;2023-05-16T23:29:35;30.80;99.90
44435;DHT22;30138;20.964;105.830;2023-05-16T23:34:43;30.80;99.90
44435;DHT22;30138;20.964;105.830;2023-05-16T23:39:51;30.80;99.90
44435;DHT22;30138;20.964;105.830;2023-05-16T23:44:57;30.80;99.90
44435;DHT22;30138;20.964;105.830;2023-05-16T23:50:04;30.80;99.90
44435;DHT22;30138;20.964;105.830;2023-05-16T23:55:13;30.80;99.90
